createdAt,value
2018-05-18T00:02:00.652Z,87.80
2018-05-18T00:04:29.162Z,87.80
2018-05-18T00:06:56.890Z,87.80
2018-05-18T00:09:24.645Z,87.80
2018-05-18T00:11:52.410Z,87.90
2018-05-18T00:14:20.134Z,88.00
2018-05-18T00:16:48.630Z,88.50
2018-05-18T00:19:16.957Z,88.40
2018-05-18T00:21:45.469Z,89.40
2018-05-18T00:24:13.205Z,89.30
2018-05-18T00:26:40.940Z,89.80
2018-05-18T00:29:08.673Z,90.10
2018-05-18T00:31:36.421Z,90.40
2018-05-18T00:34:04.312Z,90.40
2018-05-18T00:36:32.076Z,90.50
2018-05-18T00:38:59.821Z,90.50
2018-05-18T00:41:27.562Z,90.60
2018-05-18T00:43:55.354Z,90.70
2018-05-18T00:46:23.090Z,90.70
2018-05-18T00:48:50.831Z,90.80
2018-05-18T00:51:19.420Z,91.00
2018-05-18T00:53:47.168Z,91.00
2018-05-18T00:56:15.674Z,91.20
2018-05-18T00:58:44.179Z,90.90
2018-05-18T01:01:11.928Z,90.90
2018-05-18T01:03:39.675Z,91.00
2018-05-18T01:06:07.412Z,90.90
2018-05-18T01:08:35.153Z,90.80
2018-05-18T01:11:02.889Z,90.90
2018-05-18T01:13:30.654Z,90.70
2018-05-18T01:15:58.412Z,90.80
2018-05-18T01:18:26.168Z,90.80
2018-05-18T01:20:53.958Z,90.70
2018-05-18T01:23:21.719Z,90.70
2018-05-18T01:25:49.464Z,90.80
2018-05-18T01:28:17.205Z,91.10
2018-05-18T01:30:45.744Z,91.20
2018-05-18T01:33:13.496Z,91.20
2018-05-18T01:35:41.243Z,91.20
2018-05-18T01:38:09.034Z,91.60
2018-05-18T01:40:36.795Z,91.60
2018-05-18T01:43:04.577Z,91.70
2018-05-18T01:45:32.326Z,92.00
2018-05-18T01:48:00.069Z,92.10
2018-05-18T01:50:27.832Z,92.10
2018-05-18T01:52:55.607Z,92.20
2018-05-18T01:55:23.324Z,92.30
2018-05-18T01:57:51.824Z,92.60
2018-05-18T02:00:19.563Z,92.50
2018-05-18T02:02:48.122Z,92.60
2018-05-18T02:05:15.865Z,92.50
2018-05-18T02:07:43.620Z,92.60
2018-05-18T02:10:11.369Z,92.70
2018-05-18T02:12:39.112Z,92.70
2018-05-18T02:15:07.623Z,93.00
2018-05-18T02:17:35.384Z,93.00
2018-05-18T02:20:03.208Z,93.00
2018-05-18T02:22:32.712Z,93.20
2018-05-18T02:25:01.304Z,93.20
2018-05-18T02:27:29.824Z,93.20
2018-05-18T02:29:57.627Z,93.20
2018-05-18T02:32:25.388Z,93.00
2018-05-18T02:34:53.124Z,92.90
2018-05-18T02:37:20.885Z,93.00
2018-05-18T02:39:48.647Z,93.10
2018-05-18T02:42:16.397Z,93.10
2018-05-18T02:44:44.162Z,93.10
2018-05-18T02:47:11.922Z,93.10
2018-05-18T02:49:39.684Z,93.00
2018-05-18T02:52:07.449Z,92.90
2018-05-18T02:54:35.203Z,93.10
2018-05-18T02:57:02.989Z,93.40
2018-05-18T02:59:31.552Z,93.30
2018-05-18T03:01:59.292Z,93.30
2018-05-18T03:04:27.826Z,93.50
2018-05-18T03:06:55.667Z,93.60
2018-05-18T03:09:23.400Z,93.60
2018-05-18T03:11:51.932Z,93.50
2018-05-18T03:14:21.125Z,93.70
2018-05-18T03:16:48.888Z,93.70
2018-05-18T03:19:16.622Z,93.50
2018-05-18T03:21:44.365Z,93.40
2018-05-18T03:24:12.101Z,93.40
2018-05-18T03:26:39.840Z,93.40
2018-05-18T03:29:07.636Z,93.50
2018-05-18T03:31:35.377Z,93.60
2018-05-18T03:34:03.129Z,93.70
2018-05-18T03:36:31.517Z,93.90
2018-05-18T03:38:59.289Z,93.90
2018-05-18T03:41:27.088Z,93.90
2018-05-18T03:43:54.904Z,93.80
2018-05-18T03:46:22.659Z,94.00
2018-05-18T03:48:50.411Z,93.90
2018-05-18T03:51:18.147Z,94.10
2018-05-18T03:53:45.912Z,94.10
2018-05-18T03:56:13.644Z,94.30
2018-05-18T03:58:41.392Z,94.20
2018-05-18T04:01:09.259Z,94.20
2018-05-18T04:03:49.300Z,94.20
2018-05-18T04:06:29.289Z,94.20
2018-05-18T04:08:57.057Z,94.30
2018-05-18T04:11:24.819Z,94.40
2018-05-18T04:13:52.600Z,94.40
2018-05-18T04:16:20.406Z,94.40
2018-05-18T04:18:48.944Z,94.50
2018-05-18T04:21:16.688Z,94.60
2018-05-18T04:23:44.435Z,94.60
2018-05-18T04:26:12.184Z,94.70
2018-05-18T04:28:40.246Z,94.90
2018-05-18T04:31:08.001Z,95.10
2018-05-18T04:33:35.744Z,95.10
2018-05-18T04:36:04.266Z,95.10
2018-05-18T04:38:32.045Z,95.10
2018-05-18T04:40:59.786Z,95.00
2018-05-18T04:43:27.553Z,95.00
2018-05-18T04:45:55.357Z,95.00
2018-05-18T04:48:23.120Z,95.00
2018-05-18T04:50:51.012Z,95.10
2018-05-18T04:53:18.757Z,95.20
2018-05-18T04:55:46.519Z,95.20
2018-05-18T04:58:14.357Z,95.20
2018-05-18T05:00:42.124Z,95.20
2018-05-18T05:03:09.873Z,95.20
2018-05-18T05:05:37.615Z,95.20
2018-05-18T05:08:05.416Z,95.00
2018-05-18T05:10:33.328Z,94.60
2018-05-18T05:13:01.825Z,94.50
2018-05-18T05:15:29.588Z,94.50
2018-05-18T05:17:57.393Z,94.50
2018-05-18T05:20:25.127Z,94.40
2018-05-18T05:22:52.900Z,94.40
2018-05-18T05:25:21.296Z,94.30
2018-05-18T05:27:49.036Z,94.30
2018-05-18T05:30:16.799Z,94.30
2018-05-18T05:32:45.003Z,94.50
2018-05-18T05:35:21.523Z,94.60
2018-05-18T05:37:49.360Z,94.70
2018-05-18T05:40:17.137Z,94.80
2018-05-18T05:42:57.562Z,95.10
2018-05-18T05:45:25.376Z,95.10
2018-05-18T05:47:53.185Z,95.20
2018-05-18T05:50:20.929Z,95.30
2018-05-18T05:52:48.705Z,95.40
2018-05-18T05:55:16.498Z,95.40
2018-05-18T05:57:46.135Z,95.40
2018-05-18T06:00:14.669Z,95.60
2018-05-18T06:02:42.412Z,95.60
2018-05-18T06:05:11.048Z,95.30
2018-05-18T06:07:38.797Z,95.30
2018-05-18T06:10:06.604Z,95.20
2018-05-18T06:12:34.362Z,95.10
2018-05-18T06:15:02.897Z,95.00
2018-05-18T06:17:30.686Z,94.90
2018-05-18T06:19:58.452Z,94.70
2018-05-18T06:22:27.082Z,94.60
2018-05-18T06:24:54.856Z,94.30
2018-05-18T06:27:22.626Z,94.20
2018-05-18T06:29:50.387Z,94.30
2018-05-18T06:32:18.137Z,94.20
2018-05-18T06:34:45.993Z,94.30
2018-05-18T06:37:13.828Z,94.00
2018-05-18T06:39:42.357Z,94.20
2018-05-18T06:42:10.115Z,94.20
2018-05-18T06:44:37.872Z,94.20
2018-05-18T06:47:05.788Z,94.20
2018-05-18T06:49:33.552Z,94.20
2018-05-18T06:52:01.320Z,94.10
2018-05-18T06:54:29.145Z,93.90
2018-05-18T06:56:56.917Z,93.70
2018-05-18T06:59:24.656Z,93.50
2018-05-18T07:01:52.420Z,93.60
2018-05-18T07:04:20.193Z,93.70
2018-05-18T07:06:47.952Z,93.90
2018-05-18T07:09:15.696Z,94.40
2018-05-18T07:11:44.202Z,94.60
2018-05-18T07:14:12.760Z,94.40
2018-05-18T07:16:41.298Z,94.10
2018-05-18T07:19:09.042Z,94.10
2018-05-18T07:21:36.781Z,93.70
2018-05-18T07:24:04.605Z,93.90
2018-05-18T07:26:33.147Z,93.40
2018-05-18T07:29:01.642Z,93.40
2018-05-18T07:31:29.373Z,93.40
2018-05-18T07:33:57.118Z,93.30
2018-05-18T07:36:25.637Z,93.40
2018-05-18T07:38:53.372Z,93.40
2018-05-18T07:41:21.880Z,93.20
2018-05-18T07:43:49.691Z,93.20
2018-05-18T07:46:17.419Z,93.00
2018-05-18T07:48:45.153Z,92.90
2018-05-18T07:51:12.897Z,92.90
2018-05-18T07:53:41.493Z,93.50
2018-05-18T07:56:09.203Z,93.50
2018-05-18T07:58:36.950Z,94.20
2018-05-18T08:01:04.719Z,93.10
2018-05-18T08:03:32.459Z,92.90
2018-05-18T08:06:00.194Z,93.10
2018-05-18T08:08:28.713Z,91.60
2018-05-18T08:10:56.444Z,91.60
2018-05-18T08:13:24.953Z,90.80
2018-05-18T08:15:52.693Z,90.90
2018-05-18T08:18:21.244Z,89.30
2018-05-18T08:20:48.983Z,89.20
2018-05-18T08:23:16.728Z,87.60
2018-05-18T08:25:44.475Z,87.70
2018-05-18T08:28:12.972Z,88.60
2018-05-18T08:30:52.584Z,88.50
2018-05-18T08:33:21.097Z,89.10
2018-05-18T08:35:50.675Z,89.10
2018-05-18T08:38:18.461Z,88.10
2018-05-18T08:40:46.216Z,89.00
2018-05-18T08:43:14.000Z,87.80
2018-05-18T08:45:41.813Z,87.90
2018-05-18T08:48:09.552Z,87.30
2018-05-18T08:50:38.245Z,87.40
2018-05-18T08:53:05.990Z,87.50
2018-05-18T08:55:33.721Z,87.80
2018-05-18T08:58:02.234Z,87.30
2018-05-18T09:00:29.996Z,87.30
2018-05-18T09:02:57.768Z,86.30
2018-05-18T09:05:25.577Z,85.70
2018-05-18T09:07:54.120Z,84.20
2018-05-18T09:10:21.876Z,84.10
2018-05-18T09:12:49.624Z,83.40
2018-05-18T09:15:17.378Z,82.80
2018-05-18T09:17:45.131Z,82.60
2018-05-18T09:20:13.679Z,80.40
2018-05-18T09:22:42.340Z,80.40
2018-05-18T09:25:10.103Z,79.10
2018-05-18T09:27:37.856Z,78.60
2018-05-18T09:30:06.046Z,78.10
2018-05-18T09:32:33.784Z,77.80
2018-05-18T09:35:01.527Z,77.30
2018-05-18T09:37:30.068Z,77.10
2018-05-18T09:39:57.795Z,77.10
2018-05-18T09:42:25.533Z,77.00
2018-05-18T09:44:54.060Z,75.20
2018-05-18T09:47:21.798Z,75.20
2018-05-18T09:49:49.521Z,73.90
2018-05-18T09:52:17.266Z,73.10
2018-05-18T09:54:45.936Z,72.70
2018-05-18T09:57:14.425Z,72.70
2018-05-18T09:59:42.185Z,71.50
2018-05-18T10:02:09.958Z,70.00
2018-05-18T10:04:37.753Z,69.70
2018-05-18T10:07:06.339Z,68.00
2018-05-18T10:09:34.846Z,67.30
2018-05-18T10:12:02.715Z,67.20
2018-05-18T10:14:30.448Z,67.00
2018-05-18T10:16:59.001Z,67.50
2018-05-18T10:19:26.763Z,67.50
2018-05-18T10:21:54.522Z,67.40
2018-05-18T10:24:23.125Z,68.60
2018-05-18T10:26:50.873Z,68.50
2018-05-18T10:29:18.661Z,69.80
2018-05-18T10:31:47.161Z,70.40
2018-05-18T10:34:15.720Z,69.70
2018-05-18T10:36:43.882Z,69.70
2018-05-18T10:39:11.752Z,68.70
2018-05-18T10:41:39.491Z,68.10
2018-05-18T10:44:07.268Z,67.70
2018-05-18T10:46:35.067Z,69.10
2018-05-18T10:49:03.622Z,71.70
2018-05-18T10:51:31.404Z,71.60
2018-05-18T10:53:59.201Z,73.40
2018-05-18T10:56:26.947Z,74.70
2018-05-18T10:58:55.477Z,75.40
2018-05-18T11:01:23.221Z,75.40
2018-05-18T11:03:51.088Z,75.20
2018-05-18T11:06:18.841Z,75.50
2018-05-18T11:08:46.739Z,75.30
2018-05-18T11:11:14.484Z,75.90
2018-05-18T11:13:42.303Z,75.50
2018-05-18T11:16:10.962Z,74.30
2018-05-18T11:18:38.757Z,74.30
2018-05-18T11:21:07.310Z,74.60
2018-05-18T11:23:35.134Z,74.50
2018-05-18T11:26:02.894Z,74.60
2018-05-18T11:28:30.697Z,74.30
2018-05-18T11:30:58.493Z,73.90
2018-05-18T11:33:26.220Z,73.30
2018-05-18T11:35:54.740Z,69.90
2018-05-18T11:38:22.521Z,69.90
2018-05-18T11:40:51.049Z,69.30
2018-05-18T11:43:18.832Z,69.10
2018-05-18T11:45:46.575Z,67.90
2018-05-18T11:48:14.329Z,68.70
2018-05-18T11:50:42.190Z,69.50
2018-05-18T11:53:09.985Z,68.80
2018-05-18T11:55:37.754Z,69.70
2018-05-18T11:58:05.534Z,70.60
2018-05-18T12:00:34.054Z,72.10
2018-05-18T12:03:01.798Z,72.00
2018-05-18T12:05:30.348Z,71.50
2018-05-18T12:07:58.099Z,71.50
2018-05-18T12:10:25.881Z,72.10
2018-05-18T12:12:53.620Z,73.00
2018-05-18T12:15:21.365Z,73.30
2018-05-18T12:17:49.829Z,73.70
2018-05-18T12:20:17.584Z,74.80
2018-05-18T12:22:45.363Z,75.10
2018-05-18T12:25:13.852Z,75.40
2018-05-18T12:27:41.655Z,75.80
2018-05-18T12:30:09.398Z,77.00
2018-05-18T12:32:37.153Z,77.70
2018-05-18T12:35:04.889Z,77.80
2018-05-18T12:37:32.663Z,77.80
2018-05-18T12:40:00.409Z,78.00
2018-05-18T12:42:28.161Z,78.80
2018-05-18T12:44:56.669Z,79.10
2018-05-18T12:47:24.416Z,79.10
2018-05-18T12:49:52.978Z,78.50
2018-05-18T12:52:20.725Z,78.50
2018-05-18T12:54:48.467Z,78.40
2018-05-18T12:57:16.730Z,78.70
2018-05-18T12:59:44.476Z,79.00
2018-05-18T13:02:12.214Z,78.70
2018-05-18T13:04:40.730Z,78.20
2018-05-18T13:07:08.484Z,78.20
2018-05-18T13:09:36.252Z,77.80
2018-05-18T13:12:04.053Z,77.30
2018-05-18T13:14:31.829Z,77.30
2018-05-18T13:16:59.583Z,76.90
2018-05-18T13:19:27.332Z,76.90
2018-05-18T13:21:55.081Z,75.00
2018-05-18T13:24:22.812Z,74.70
2018-05-18T13:26:51.350Z,75.70
2018-05-18T13:29:19.086Z,75.70
2018-05-18T13:31:46.855Z,75.60
2018-05-18T13:34:14.661Z,75.80
2018-05-18T13:36:42.395Z,75.70
2018-05-18T13:39:10.169Z,76.10
2018-05-18T13:41:37.956Z,76.00
2018-05-18T13:44:05.772Z,75.70
2018-05-18T13:46:33.530Z,75.20
2018-05-18T13:49:01.356Z,75.20
2018-05-18T13:51:29.109Z,74.80
2018-05-18T13:53:57.655Z,74.60
2018-05-18T13:56:25.644Z,74.60
2018-05-18T13:58:53.389Z,74.60
2018-05-18T14:01:21.139Z,74.80
2018-05-18T14:03:48.919Z,75.40
2018-05-18T14:06:16.784Z,74.80
2018-05-18T14:08:44.638Z,73.60
2018-05-18T14:11:12.381Z,73.50
2018-05-18T14:13:40.270Z,73.50
2018-05-18T14:16:08.020Z,73.80
2018-05-18T14:18:35.764Z,73.90
2018-05-18T14:21:04.427Z,75.10
2018-05-18T14:23:32.172Z,75.00
2018-05-18T14:25:59.918Z,75.00
2018-05-18T14:28:27.768Z,75.30
2018-05-18T14:30:55.725Z,75.90
2018-05-18T14:33:23.577Z,76.70
2018-05-18T14:35:51.338Z,77.00
2018-05-18T14:38:19.074Z,76.60
2018-05-18T14:40:46.816Z,76.80
2018-05-18T14:43:14.774Z,76.70
2018-05-18T14:45:42.464Z,76.30
2018-05-18T14:48:10.212Z,76.70
2018-05-18T14:50:37.981Z,76.70
2018-05-18T14:53:05.757Z,77.20
2018-05-18T14:55:33.512Z,77.40
2018-05-18T14:58:01.274Z,76.90
2018-05-18T15:00:29.806Z,77.10
2018-05-18T15:02:58.307Z,77.70
2018-05-18T15:05:26.046Z,77.70
2018-05-18T15:07:53.833Z,77.90
2018-05-18T15:10:21.574Z,77.40
2018-05-18T15:12:50.077Z,76.30
2018-05-18T15:15:17.857Z,76.20
2018-05-18T15:17:45.593Z,76.50
2018-05-18T15:20:14.103Z,76.40
2018-05-18T15:22:42.644Z,76.30
2018-05-18T15:25:11.192Z,76.20
2018-05-18T15:27:38.937Z,76.20
2018-05-18T15:30:06.698Z,75.90
2018-05-18T15:32:34.476Z,75.30
2018-05-18T15:35:02.240Z,75.70
2018-05-18T15:37:30.011Z,75.60
2018-05-18T15:39:57.772Z,76.10
2018-05-18T15:42:25.505Z,76.00
2018-05-18T15:44:53.343Z,76.10
2018-05-18T15:47:21.086Z,74.70
2018-05-18T15:49:48.821Z,75.50
2018-05-18T15:52:16.556Z,76.00
2018-05-18T15:54:44.300Z,76.40
2018-05-18T15:57:12.801Z,77.00
2018-05-18T15:59:40.558Z,77.00
2018-05-18T16:02:08.396Z,77.20
2018-05-18T16:04:36.157Z,77.30
2018-05-18T16:07:03.913Z,77.50
2018-05-18T16:09:31.652Z,77.50
2018-05-18T16:11:59.387Z,77.50
2018-05-18T16:14:27.991Z,77.60
2018-05-18T16:16:55.997Z,77.90
2018-05-18T16:19:23.752Z,78.00
2018-05-18T16:21:51.560Z,78.30
2018-05-18T16:24:19.331Z,78.20
2018-05-18T16:26:47.176Z,78.20
2018-05-18T16:29:15.677Z,78.70
2018-05-18T16:31:43.449Z,78.70
2018-05-18T16:34:11.981Z,78.60
2018-05-18T16:36:40.529Z,79.30
2018-05-18T16:39:08.259Z,79.30
2018-05-18T16:41:36.773Z,80.50
2018-05-18T16:44:04.520Z,80.60
2018-05-18T16:46:32.253Z,80.90
2018-05-18T16:49:00.777Z,80.80
2018-05-18T16:51:28.549Z,80.80
2018-05-18T16:53:56.317Z,81.30
2018-05-18T16:56:24.113Z,81.40
2018-05-18T16:58:51.848Z,80.90
2018-05-18T17:01:19.581Z,80.80
2018-05-18T17:03:47.309Z,80.80
2018-05-18T17:06:15.037Z,80.30
2018-05-18T17:08:42.765Z,81.20
2018-05-18T17:11:10.505Z,81.80
2018-05-18T17:13:39.008Z,82.40
2018-05-18T17:16:06.746Z,82.50
2018-05-18T17:18:35.254Z,82.50
2018-05-18T17:21:03.017Z,82.20
2018-05-18T17:23:30.788Z,82.10
2018-05-18T17:25:59.133Z,82.40
2018-05-18T17:28:26.848Z,82.40
2018-05-18T17:30:54.618Z,82.20
2018-05-18T17:33:22.424Z,82.00
2018-05-18T17:35:50.249Z,81.90
2018-05-18T17:38:18.016Z,82.10
2018-05-18T17:40:45.779Z,83.70
2018-05-18T17:43:13.511Z,84.30
2018-05-18T17:45:41.297Z,84.50
2018-05-18T17:48:09.040Z,85.20
2018-05-18T17:50:36.800Z,85.90
2018-05-18T17:53:05.741Z,84.90
2018-05-18T17:55:34.366Z,82.50
2018-05-18T17:58:02.276Z,82.40
2018-05-18T18:00:30.096Z,83.10
2018-05-18T18:02:58.609Z,83.40
2018-05-18T18:05:26.379Z,83.40
2018-05-18T18:07:54.263Z,83.70
2018-05-18T18:10:22.748Z,81.60
2018-05-18T18:12:50.601Z,81.60
2018-05-18T18:15:18.361Z,80.50
2018-05-18T18:17:46.136Z,81.70
2018-05-18T18:20:13.881Z,82.60
2018-05-18T18:22:41.613Z,82.80
2018-05-18T18:25:10.168Z,81.70
2018-05-18T18:27:37.936Z,81.70
2018-05-18T18:30:05.700Z,82.60
2018-05-18T18:32:33.504Z,83.60
2018-05-18T18:35:01.228Z,83.90
2018-05-18T18:37:28.973Z,83.50
2018-05-18T18:39:56.804Z,84.10
2018-05-18T18:42:24.493Z,84.40
2018-05-18T18:44:52.237Z,84.20
2018-05-18T18:47:19.994Z,84.20
2018-05-18T18:49:47.821Z,83.60
2018-05-18T18:52:16.341Z,82.00
2018-05-18T18:54:44.140Z,82.00
2018-05-18T18:57:12.005Z,82.20
2018-05-18T18:59:41.262Z,82.70
2018-05-18T19:02:08.997Z,82.60
2018-05-18T19:04:37.520Z,84.60
2018-05-18T19:07:05.259Z,84.60
2018-05-18T19:09:33.765Z,83.70
2018-05-18T19:12:01.532Z,83.70
2018-05-18T19:14:29.272Z,84.30
2018-05-18T19:16:57.237Z,85.10
2018-05-18T19:19:24.988Z,84.80
2018-05-18T19:21:53.540Z,84.20
2018-05-18T19:24:21.340Z,84.10
2018-05-18T19:26:49.863Z,86.10
2018-05-18T19:29:17.609Z,85.40
2018-05-18T19:31:45.428Z,85.60
2018-05-18T19:34:21.524Z,85.90
2018-05-18T19:36:49.526Z,86.10
2018-05-18T19:39:17.282Z,85.20
2018-05-18T19:41:45.038Z,84.90
2018-05-18T19:44:12.773Z,85.20
2018-05-18T19:46:42.367Z,86.10
2018-05-18T19:49:12.931Z,86.30
2018-05-18T19:51:40.695Z,86.50
2018-05-18T19:54:08.550Z,86.30
2018-05-18T19:56:36.328Z,85.90
2018-05-18T19:59:04.128Z,85.90
2018-05-18T20:01:31.881Z,86.10
2018-05-18T20:03:59.630Z,86.80
2018-05-18T20:06:27.408Z,87.00
2018-05-18T20:08:55.213Z,87.20
2018-05-18T20:11:23.799Z,87.10
2018-05-18T20:13:52.361Z,87.30
2018-05-18T20:16:20.171Z,87.20
2018-05-18T20:18:47.927Z,87.30
2018-05-18T20:21:15.691Z,87.10
2018-05-18T20:23:43.464Z,87.30
2018-05-18T20:26:11.245Z,87.00
2018-05-18T20:28:40.099Z,86.60
2018-05-18T20:31:08.608Z,85.90
2018-05-18T20:33:36.349Z,85.80
2018-05-18T20:36:04.754Z,85.90
2018-05-18T20:38:32.534Z,86.20
2018-05-18T20:41:00.281Z,86.00
2018-05-18T20:43:28.027Z,86.00
2018-05-18T20:45:55.889Z,86.30
2018-05-18T20:48:23.710Z,86.50
2018-05-18T20:50:51.441Z,86.80
2018-05-18T20:53:19.205Z,87.00
2018-05-18T20:55:46.986Z,87.30
2018-05-18T20:58:14.903Z,87.30
2018-05-18T21:00:42.682Z,87.70
2018-05-18T21:03:10.589Z,87.80
2018-05-18T21:05:38.458Z,87.50
2018-05-18T21:08:06.265Z,87.40
2018-05-18T21:10:34.953Z,87.10
2018-05-18T21:13:02.682Z,87.20
2018-05-18T21:15:30.420Z,87.70
2018-05-18T21:17:58.189Z,86.90
2018-05-18T21:20:25.956Z,87.40
2018-05-18T21:22:53.773Z,87.50
2018-05-18T21:25:22.584Z,88.50
2018-05-18T21:27:50.532Z,88.60
2018-05-18T21:30:18.294Z,88.70
2018-05-18T21:32:46.803Z,89.30
2018-05-18T21:35:14.537Z,89.10
2018-05-18T21:37:43.242Z,90.00
2018-05-18T21:40:11.009Z,90.00
2018-05-18T21:42:38.776Z,90.10
2018-05-18T21:45:06.620Z,90.10
2018-05-18T21:47:35.149Z,89.90
2018-05-18T21:50:03.117Z,89.70
2018-05-18T21:52:30.868Z,90.00
2018-05-18T21:54:58.628Z,90.00
2018-05-18T21:57:26.365Z,90.00
2018-05-18T21:59:54.945Z,89.90
2018-05-18T22:02:23.473Z,89.40
2018-05-18T22:04:51.201Z,89.40
2018-05-18T22:07:18.941Z,89.10
2018-05-18T22:09:47.489Z,88.90
2018-05-18T22:12:15.230Z,88.80
2018-05-18T22:14:42.976Z,89.10
2018-05-18T22:17:10.710Z,88.90
2018-05-18T22:19:39.224Z,89.20
2018-05-18T22:22:07.048Z,89.20
2018-05-18T22:24:34.778Z,89.60
2018-05-18T22:27:02.537Z,89.70
2018-05-18T22:29:30.280Z,89.70
2018-05-18T22:31:58.006Z,90.00
2018-05-18T22:34:25.738Z,90.00
2018-05-18T22:36:53.492Z,90.10
2018-05-18T22:39:21.241Z,89.90
2018-05-18T22:41:48.970Z,90.00
2018-05-18T22:44:17.460Z,90.00
2018-05-18T22:46:46.714Z,89.90
2018-05-18T22:49:14.450Z,89.90
2018-05-18T22:51:42.192Z,89.80
2018-05-18T22:54:09.929Z,89.50
2018-05-18T22:56:37.674Z,89.70
2018-05-18T22:59:05.417Z,90.00
2018-05-18T23:01:33.289Z,90.00
2018-05-18T23:04:01.026Z,90.00
2018-05-18T23:06:28.759Z,90.20
2018-05-18T23:08:57.281Z,90.70
2018-05-18T23:11:25.045Z,90.70
2018-05-18T23:13:52.800Z,90.80
2018-05-18T23:16:20.533Z,90.90
2018-05-18T23:18:49.040Z,91.30
2018-05-18T23:21:17.537Z,91.30
2018-05-18T23:23:45.284Z,91.40
2018-05-18T23:26:13.020Z,91.30
2018-05-18T23:28:41.542Z,91.20
2018-05-18T23:31:10.473Z,91.20
2018-05-18T23:33:38.288Z,91.20
2018-05-18T23:36:06.021Z,91.30
2018-05-18T23:38:34.606Z,91.30
2018-05-18T23:41:03.120Z,91.40
2018-05-18T23:43:30.857Z,91.40
2018-05-18T23:45:59.353Z,91.70
2018-05-18T23:48:27.091Z,91.70
2018-05-18T23:50:55.592Z,91.80
2018-05-18T23:53:23.327Z,91.80
2018-05-18T23:55:51.076Z,91.90
2018-05-18T23:58:18.798Z,91.90
